Time;durP1;ratioP1;P1;durP2;ratioP2;P2;SDS_P1;SDS_P2;PMS_P1;PMS_P2;Temp;Humidity;BMP_temperature;BMP_pressure;BME280_temperature;BME280_humidity;BME280_pressure;Samples;Min_cycle;Max_cycle;Signal;HPM_P1;HPM_P2
2023/07/14 00:00:21;;;;;;;0.00;0.00;;;;;;;;;;1726366;28;20571;-74
2023/07/14 00:01:16;;;;;;;0.00;0.00;;;;;;;;;;1724756;28;20200;-74
2023/07/14 00:02:10;;;;;;;0.00;0.00;;;;;;;;;;1723934;28;20270;-74
2023/07/14 00:03:01;;;;;;;0.00;0.00;;;;;;;;;;1726303;28;20267;-74
2023/07/14 00:03:53;;;;;;;0.00;0.00;;;;;;;;;;1725669;28;20204;-74
2023/07/14 00:04:45;;;;;;;0.00;0.00;;;;;;;;;;1726226;28;20197;-75
2023/07/14 00:05:38;;;;;;;0.00;0.00;;;;;;;;;;1726377;28;20638;-74
2023/07/14 00:06:29;;;;;;;0.00;0.00;;;;;;;;;;1726356;28;20654;-75
2023/07/14 00:07:21;;;;;;;0.00;0.00;;;;;;;;;;1725696;28;20215;-74
2023/07/14 00:08:16;;;;;;;0.00;0.00;;;;;;;;;;1726018;28;20314;-75
2023/07/14 00:09:14;;;;;;;0.00;0.00;;;;;;;;;;1725580;28;20678;-75
2023/07/14 00:10:12;;;;;;;0.00;0.00;;;;;;;;;;1726190;28;20216;-75
2023/07/14 00:11:05;;;;;;;0.00;0.00;;;;;;;;;;1725811;28;20505;-75
2023/07/14 00:11:57;;;;;;;0.00;0.00;;;;;;;;;;1725883;28;20614;-75
2023/07/14 00:12:49;;;;;;;0.00;0.00;;;;;;;;;;1725183;28;20240;-75
2023/07/14 00:13:42;;;;;;;0.00;0.00;;;;;;;;;;1725738;28;20197;-75
2023/07/14 00:14:33;;;;;;;0.00;0.00;;;;;;;;;;1724506;28;20609;-75
2023/07/14 00:15:24;;;;;;;0.00;0.00;;;;;;;;;;1726233;28;20267;-75
2023/07/14 00:16:17;;;;;;;0.00;0.00;;;;;;;;;;1725391;28;20210;-75
2023/07/14 00:17:11;;;;;;;0.00;0.00;;;;;;;;;;1725379;28;20262;-75
2023/07/14 00:18:10;;;;;;;0.00;0.00;;;;;;;;;;1736589;28;20584;-75
2023/07/14 00:19:01;;;;;;;0.00;0.00;;;;;;;;;;1739194;28;20209;-75
2023/07/14 00:19:53;;;;;;;0.00;0.00;;;;;;;;;;1739652;28;20639;-75
2023/07/14 00:20:44;;;;;;;0.00;0.00;;;;;;;;;;1739299;28;20797;-75
2023/07/14 00:21:37;;;;;;;0.00;0.00;;;;;;;;;;1739397;28;20298;-74
2023/07/14 00:22:28;;;;;;;0.00;0.00;;;;;;;;;;1739344;28;20211;-73
2023/07/14 00:23:19;;;;;;;0.00;0.00;;;;;;;;;;1739361;28;20211;-74
2023/07/14 00:24:13;;;;;;;0.00;0.00;;;;;;;;;;1738879;28;20203;-74
2023/07/14 00:25:06;;;;;;;0.00;0.00;;;;;;;;;;1739364;28;20210;-74
2023/07/14 00:25:57;;;;;;;0.00;0.00;;;;;;;;;;1739193;28;20246;-75
2023/07/14 00:26:50;;;;;;;0.00;0.00;;;;;;;;;;1739088;28;20251;-75
2023/07/14 00:27:41;;;;;;;0.00;0.00;;;;;;;;;;1739011;28;20302;-75
2023/07/14 00:28:33;;;;;;;0.00;0.00;;;;;;;;;;1739846;28;20199;-75
2023/07/14 00:29:35;;;;;;;0.00;0.00;;;;;;;;;;1739144;28;20246;-75
2023/07/14 00:30:27;;;;;;;0.00;0.00;;;;;;;;;;1734298;28;20183;-75
2023/07/14 00:31:20;;;;;;;0.00;0.00;;;;;;;;;;1738936;28;20310;-75
2023/07/14 00:32:12;;;;;;;0.00;0.00;;;;;;;;;;1739011;28;20226;-75
2023/07/14 00:33:10;;;;;;;0.00;0.00;;;;;;;;;;1739120;28;20303;-75
2023/07/14 00:34:01;;;;;;;0.00;0.00;;;;;;;;;;1739103;28;20948;-75
2023/07/14 00:34:53;;;;;;;0.00;0.00;;;;;;;;;;1739283;28;20655;-75
2023/07/14 00:35:47;;;;;;;0.00;0.00;;;;;;;;;;1739108;28;20207;-75
2023/07/14 00:36:38;;;;;;;0.00;0.00;;;;;;;;;;1739264;28;20206;-75
2023/07/14 00:37:29;;;;;;;0.00;0.00;;;;;;;;;;1739294;28;20660;-75
2023/07/14 00:38:21;;;;;;;0.00;0.00;;;;;;;;;;1739473;28;20397;-75
2023/07/14 00:39:12;;;;;;;0.00;0.00;;;;;;;;;;1738861;28;20238;-75
2023/07/14 00:40:06;;;;;;;0.00;0.00;;;;;;;;;;1739717;28;20811;-75
2023/07/14 00:40:58;;;;;;;0.00;0.00;;;;;;;;;;1739081;28;20562;-75
2023/07/14 00:41:49;;;;;;;0.00;0.00;;;;;;;;;;1739360;28;20758;-74
2023/07/14 00:42:40;;;;;;;0.00;0.00;;;;;;;;;;1738929;28;20221;-75
2023/07/14 00:43:32;;;;;;;0.00;0.00;;;;;;;;;;1739535;28;20291;-75
2023/07/14 00:44:24;;;;;;;0.00;0.00;;;;;;;;;;1738928;28;20657;-75
2023/07/14 00:45:17;;;;;;;0.00;0.00;;;;;;;;;;1739712;28;20544;-75
2023/07/14 00:46:15;;;;;;;0.00;0.00;;;;;;;;;;1738635;28;20206;-75
2023/07/14 00:47:10;;;;;;;0.00;0.00;;;;;;;;;;1738794;28;20261;-75
2023/07/14 00:48:04;;;;;;;0.00;0.00;;;;;;;;;;1739173;28;20199;-75
2023/07/14 00:48:56;;;;;;;0.00;0.00;;;;;;;;;;1738865;28;20211;-75
2023/07/14 00:49:48;;;;;;;0.00;0.00;;;;;;;;;;1739068;28;20202;-75
2023/07/14 00:50:42;;;;;;;0.00;0.00;;;;;;;;;;1739202;28;20203;-75
2023/07/14 00:51:35;;;;;;;0.00;0.00;;;;;;;;;;1739500;28;20823;-74
2023/07/14 00:52:28;;;;;;;0.00;0.00;;;;;;;;;;1739078;28;20207;-74
2023/07/14 00:53:22;;;;;;;0.00;0.00;;;;;;;;;;1739417;28;20203;-74
2023/07/14 00:54:23;;;;;;;0.00;0.00;;;;;;;;;;1738793;28;20645;-74
2023/07/14 00:55:28;;;;;;;0.00;0.00;;;;;;;;;;1739253;28;20632;-74
2023/07/14 00:56:31;;;;;;;0.00;0.00;;;;;;;;;;1738743;28;20211;-75
2023/07/14 00:57:24;;;;;;;0.00;0.00;;;;;;;;;;1738563;28;20303;-75
2023/07/14 00:58:18;;;;;;;0.00;0.00;;;;;;;;;;1738853;28;20199;-75
2023/07/14 00:59:11;;;;;;;0.10;0.10;;;;;;;;;;1739007;28;20242;-75
2023/07/14 01:00:19;;;;;;;0.00;0.00;;;;;;;;;;1739394;28;20241;-75
2023/07/14 01:01:12;;;;;;;0.00;0.00;;;;;;;;;;1739473;28;20651;-75
2023/07/14 01:02:25;;;;;;;0.00;0.00;;;;;;;;;;1735617;28;20261;-74
2023/07/14 01:03:17;;;;;;;0.00;0.00;;;;;;;;;;1734107;28;20218;-74
2023/07/14 01:04:08;;;;;;;0.00;0.00;;;;;;;;;;1738625;28;20235;-74
2023/07/14 01:05:03;;;;;;;0.00;0.00;;;;;;;;;;1739120;28;20203;-74
2023/07/14 01:05:54;;;;;;;0.00;0.00;;;;;;;;;;1738831;28;20217;-74
2023/07/14 01:06:45;;;;;;;0.00;0.00;;;;;;;;;;1738891;28;20282;-74
2023/07/14 01:07:39;;;;;;;0.00;0.00;;;;;;;;;;1739040;28;20654;-74
2023/07/14 01:08:31;;;;;;;0.00;0.00;;;;;;;;;;1739277;28;20199;-74
2023/07/14 01:09:22;;;;;;;0.00;0.00;;;;;;;;;;1738588;28;20234;-74
2023/07/14 01:10:17;;;;;;;0.00;0.00;;;;;;;;;;1739409;28;20203;-74
2023/07/14 01:11:10;;;;;;;0.00;0.00;;;;;;;;;;1738495;28;20219;-74
2023/07/14 01:12:03;;;;;;;0.00;0.00;;;;;;;;;;1739039;28;20583;-74
2023/07/14 01:12:57;;;;;;;0.00;0.00;;;;;;;;;;1738917;28;20226;-75
2023/07/14 01:13:48;;;;;;;0.00;0.00;;;;;;;;;;1739020;28;20218;-76
2023/07/14 01:14:42;;;;;;;0.00;0.00;;;;;;;;;;1738863;28;20214;-75
2023/07/14 01:15:35;;;;;;;0.00;0.00;;;;;;;;;;1739384;28;20233;-76
2023/07/14 01:16:28;;;;;;;0.00;0.00;;;;;;;;;;1737190;28;20257;-76
2023/07/14 01:17:21;;;;;;;0.00;0.00;;;;;;;;;;1738389;28;20256;-76
2023/07/14 01:18:13;;;;;;;0.00;0.00;;;;;;;;;;1738907;28;20249;-75
2023/07/14 01:19:08;;;;;;;0.00;0.00;;;;;;;;;;1738579;28;20203;-76
2023/07/14 01:19:59;;;;;;;0.00;0.00;;;;;;;;;;1739034;28;20203;-75
2023/07/14 01:20:51;;;;;;;0.00;0.00;;;;;;;;;;1739100;28;20210;-75
2023/07/14 01:21:44;;;;;;;0.00;0.00;;;;;;;;;;1738989;28;20529;-74
2023/07/14 01:22:40;;;;;;;0.00;0.00;;;;;;;;;;1738956;28;20621;-75
2023/07/14 01:23:41;;;;;;;0.00;0.00;;;;;;;;;;1732401;28;20195;-75
2023/07/14 01:24:34;;;;;;;0.00;0.00;;;;;;;;;;1738969;28;20575;-74
2023/07/14 01:25:32;;;;;;;0.00;0.00;;;;;;;;;;1738813;28;20237;-74
2023/07/14 01:26:30;;;;;;;0.00;0.00;;;;;;;;;;1738975;28;20206;-74
2023/07/14 01:27:24;;;;;;;0.00;0.00;;;;;;;;;;1738381;28;20365;-73
2023/07/14 01:28:16;;;;;;;0.00;0.00;;;;;;;;;;1739052;28;20569;-73
2023/07/14 01:29:08;;;;;;;0.00;0.00;;;;;;;;;;1738590;28;20195;-73
2023/07/14 01:30:00;;;;;;;0.00;0.00;;;;;;;;;;1739128;28;20258;-73
2023/07/14 01:30:51;;;;;;;0.00;0.00;;;;;;;;;;1739022;28;20292;-74
2023/07/14 01:31:43;;;;;;;0.00;0.00;;;;;;;;;;1738822;28;20268;-74
2023/07/14 01:32:35;;;;;;;0.00;0.00;;;;;;;;;;1739050;28;20302;-73
2023/07/14 01:33:26;;;;;;;0.00;0.00;;;;;;;;;;1738916;28;20202;-74
2023/07/14 01:34:18;;;;;;;0.00;0.00;;;;;;;;;;1738878;28;20211;-74
2023/07/14 01:35:10;;;;;;;0.00;0.00;;;;;;;;;;1737153;28;20207;-73
2023/07/14 01:36:03;;;;;;;0.00;0.00;;;;;;;;;;1738569;28;20670;-74
2023/07/14 01:36:58;;;;;;;0.00;0.00;;;;;;;;;;1738902;28;20887;-74
2023/07/14 01:37:50;;;;;;;0.00;0.00;;;;;;;;;;1738652;28;20199;-74
2023/07/14 01:38:42;;;;;;;0.00;0.00;;;;;;;;;;1738801;28;20246;-74
2023/07/14 01:39:34;;;;;;;0.00;0.00;;;;;;;;;;1739102;28;20199;-74
2023/07/14 01:40:26;;;;;;;0.00;0.00;;;;;;;;;;1739254;28;20210;-76
2023/07/14 01:41:17;;;;;;;0.00;0.00;;;;;;;;;;1739146;28;20258;-75
2023/07/14 01:42:09;;;;;;;0.00;0.00;;;;;;;;;;1738592;28;20217;-75
2023/07/14 01:43:03;;;;;;;0.00;0.00;;;;;;;;;;1739240;28;20211;-73
2023/07/14 01:44:03;;;;;;;0.00;0.00;;;;;;;;;;1738657;28;20709;-74
2023/07/14 01:44:55;;;;;;;0.00;0.00;;;;;;;;;;1739426;28;20337;-74
2023/07/14 01:45:50;;;;;;;0.00;0.00;;;;;;;;;;1739027;28;20241;-74
2023/07/14 01:46:42;;;;;;;0.00;0.00;;;;;;;;;;1739122;28;20237;-75
2023/07/14 01:47:36;;;;;;;0.00;0.00;;;;;;;;;;1739333;28;20249;-74
2023/07/14 01:48:29;;;;;;;0.00;0.00;;;;;;;;;;1739287;28;20203;-76
2023/07/14 01:49:27;;;;;;;0.00;0.00;;;;;;;;;;1738739;28;20296;-76
2023/07/14 01:50:20;;;;;;;0.10;0.10;;;;;;;;;;1739540;28;20273;-75
2023/07/14 01:51:13;;;;;;;0.00;0.00;;;;;;;;;;1738889;28;20249;-75
2023/07/14 01:52:07;;;;;;;0.00;0.00;;;;;;;;;;1738417;28;20609;-74
2023/07/14 01:53:00;;;;;;;0.00;0.00;;;;;;;;;;1739119;28;20238;-75
2023/07/14 01:53:55;;;;;;;0.00;0.00;;;;;;;;;;1738940;28;20230;-75
2023/07/14 01:54:50;;;;;;;0.00;0.00;;;;;;;;;;1735946;28;20212;-75
2023/07/14 01:55:42;;;;;;;0.00;0.00;;;;;;;;;;1738878;28;20211;-75
2023/07/14 01:56:35;;;;;;;0.00;0.00;;;;;;;;;;1739248;28;20199;-75
2023/07/14 01:57:28;;;;;;;0.00;0.00;;;;;;;;;;1738182;28;20232;-75
2023/07/14 01:58:23;;;;;;;0.00;0.00;;;;;;;;;;1738775;28;20474;-74
2023/07/14 01:59:16;;;;;;;0.00;0.00;;;;;;;;;;1738799;28;20546;-74
2023/07/14 02:00:11;;;;;;;0.00;0.00;;;;;;;;;;1739076;28;20603;-74
2023/07/14 02:01:03;;;;;;;0.00;0.00;;;;;;;;;;1737721;28;20203;-75
2023/07/14 02:01:56;;;;;;;0.00;0.00;;;;;;;;;;1734881;28;20451;-75
2023/07/14 02:02:48;;;;;;;0.00;0.00;;;;;;;;;;1738312;28;20203;-75
2023/07/14 02:03:42;;;;;;;0.00;0.00;;;;;;;;;;1738939;28;20199;-75
2023/07/14 02:04:35;;;;;;;0.00;0.00;;;;;;;;;;1739137;28;20681;-75
2023/07/14 02:05:31;;;;;;;0.00;0.00;;;;;;;;;;1738965;28;20621;-75
2023/07/14 02:06:22;;;;;;;0.00;0.00;;;;;;;;;;1738186;28;20250;-75
2023/07/14 02:07:15;;;;;;;0.00;0.00;;;;;;;;;;1738326;28;20242;-74
2023/07/14 02:08:10;;;;;;;0.00;0.00;;;;;;;;;;1738663;28;20300;-74
2023/07/14 02:09:02;;;;;;;0.00;0.00;;;;;;;;;;1738091;28;20254;-74
2023/07/14 02:09:53;;;;;;;0.00;0.00;;;;;;;;;;1738699;28;20802;-74
2023/07/14 02:10:44;;;;;;;0.00;0.00;;;;;;;;;;1738782;28;20317;-74
2023/07/14 02:11:36;;;;;;;0.00;0.00;;;;;;;;;;1738893;28;20392;-73
2023/07/14 02:12:28;;;;;;;0.00;0.00;;;;;;;;;;1738369;28;20203;-73
2023/07/14 02:13:23;;;;;;;0.00;0.00;;;;;;;;;;1738311;28;20637;-74
2023/07/14 02:14:17;;;;;;;0.00;0.00;;;;;;;;;;1738527;28;20258;-74
2023/07/14 02:15:10;;;;;;;0.00;0.00;;;;;;;;;;1739017;28;20272;-73
2023/07/14 02:16:03;;;;;;;0.00;0.00;;;;;;;;;;1738206;28;20199;-74
2023/07/14 02:16:57;;;;;;;0.00;0.00;;;;;;;;;;1738577;28;20214;-74
2023/07/14 02:17:49;;;;;;;0.00;0.00;;;;;;;;;;1737604;28;20246;-74
2023/07/14 02:18:41;;;;;;;0.00;0.00;;;;;;;;;;1738485;28;20194;-74
2023/07/14 02:19:32;;;;;;;0.00;0.00;;;;;;;;;;1738140;28;20219;-74
2023/07/14 02:20:25;;;;;;;0.00;0.00;;;;;;;;;;1738553;28;20210;-74
2023/07/14 02:21:20;;;;;;;0.00;0.00;;;;;;;;;;1738484;28;20209;-74
2023/07/14 02:22:11;;;;;;;0.00;0.00;;;;;;;;;;1737885;28;20645;-74
2023/07/14 02:23:04;;;;;;;0.00;0.00;;;;;;;;;;1738612;28;20209;-74
2023/07/14 02:23:57;;;;;;;0.00;0.00;;;;;;;;;;1738170;28;20207;-74
2023/07/14 02:24:48;;;;;;;0.00;0.00;;;;;;;;;;1738873;28;20238;-74
2023/07/14 02:25:42;;;;;;;0.00;0.00;;;;;;;;;;1738666;28;20203;-74
2023/07/14 02:26:35;;;;;;;0.00;0.00;;;;;;;;;;1738745;28;20511;-74
2023/07/14 02:27:26;;;;;;;0.00;0.00;;;;;;;;;;1738181;28;20273;-74
2023/07/14 02:28:17;;;;;;;0.00;0.00;;;;;;;;;;1738701;28;20241;-74
2023/07/14 02:29:12;;;;;;;0.00;0.00;;;;;;;;;;1738374;28;20300;-73
2023/07/14 02:30:10;;;;;;;0.00;0.00;;;;;;;;;;1738847;28;20290;-73
2023/07/14 02:31:02;;;;;;;0.00;0.00;;;;;;;;;;1738115;28;20210;-74
2023/07/14 02:31:57;;;;;;;0.00;0.00;;;;;;;;;;1738706;28;20195;-74
2023/07/14 02:32:49;;;;;;;0.00;0.00;;;;;;;;;;1738148;28;20309;-74
2023/07/14 02:33:43;;;;;;;0.00;0.00;;;;;;;;;;1738478;28;20282;-74
2023/07/14 02:34:37;;;;;;;0.00;0.00;;;;;;;;;;1737487;28;20209;-74
2023/07/14 02:35:33;;;;;;;0.00;0.00;;;;;;;;;;1738838;28;20703;-74
2023/07/14 02:36:31;;;;;;;0.00;0.00;;;;;;;;;;1738498;28;20261;-74
2023/07/14 02:39:01;;;;;;;0.00;0.00;;;;;;;;;;1716653;28;20244;-72
2023/07/14 02:39:52;;;;;;;0.00;0.00;;;;;;;;;;1732950;28;20203;-71
2023/07/14 02:40:46;;;;;;;0.00;0.00;;;;;;;;;;1738352;28;20215;-72
2023/07/14 02:41:38;;;;;;;0.00;0.00;;;;;;;;;;1738828;28;20297;-71
2023/07/14 02:42:30;;;;;;;0.00;0.00;;;;;;;;;;1738082;28;20214;-71
2023/07/14 02:43:23;;;;;;;0.00;0.00;;;;;;;;;;1738479;28;20297;-71
2023/07/14 02:44:17;;;;;;;0.00;0.00;;;;;;;;;;1738143;28;20198;-71
2023/07/14 02:45:08;;;;;;;0.00;0.00;;;;;;;;;;1738793;28;20326;-71
2023/07/14 02:46:03;;;;;;;0.00;0.00;;;;;;;;;;1738045;28;20700;-71
2023/07/14 02:46:57;;;;;;;0.00;0.00;;;;;;;;;;1738318;28;20202;-71
2023/07/14 02:47:50;;;;;;;0.00;0.00;;;;;;;;;;1738125;28;20585;-72
2023/07/14 02:48:42;;;;;;;0.00;0.00;;;;;;;;;;1738208;28;20199;-72
2023/07/14 02:49:34;;;;;;;0.00;0.00;;;;;;;;;;1738364;28;20191;-72
2023/07/14 02:50:25;;;;;;;0.00;0.00;;;;;;;;;;1738456;28;20207;-71
2023/07/14 02:51:18;;;;;;;0.00;0.00;;;;;;;;;;1738128;28;20617;-73
2023/07/14 02:52:09;;;;;;;0.00;0.00;;;;;;;;;;1737922;28;20309;-73
2023/07/14 02:53:00;;;;;;;0.00;0.00;;;;;;;;;;1738331;28;20245;-73
2023/07/14 02:53:52;;;;;;;0.00;0.00;;;;;;;;;;1738180;28;20301;-72
2023/07/14 02:54:43;;;;;;;0.00;0.00;;;;;;;;;;1738442;28;20233;-72
2023/07/14 02:55:34;;;;;;;0.00;0.00;;;;;;;;;;1738469;28;20630;-73
2023/07/14 02:56:26;;;;;;;0.00;0.00;;;;;;;;;;1738609;28;20241;-73
2023/07/14 02:57:17;;;;;;;0.00;0.00;;;;;;;;;;1737711;28;20273;-73
2023/07/14 02:58:08;;;;;;;0.00;0.00;;;;;;;;;;1738459;28;20633;-73
2023/07/14 02:59:00;;;;;;;0.00;0.00;;;;;;;;;;1738005;28;20213;-73
2023/07/14 02:59:53;;;;;;;0.00;0.00;;;;;;;;;;1738281;28;20207;-72
2023/07/14 03:00:44;;;;;;;0.00;0.00;;;;;;;;;;1738303;28;20222;-74
2023/07/14 03:01:36;;;;;;;0.00;0.00;;;;;;;;;;1734208;28;20314;-74
2023/07/14 03:02:27;;;;;;;0.00;0.00;;;;;;;;;;1737660;28;20280;-74
2023/07/14 03:03:18;;;;;;;0.00;0.00;;;;;;;;;;1738672;28;20658;-73
2023/07/14 03:04:10;;;;;;;0.00;0.00;;;;;;;;;;1738197;28;20226;-73
2023/07/14 03:05:05;;;;;;;0.00;0.00;;;;;;;;;;1738427;28;20310;-74
2023/07/14 03:05:57;;;;;;;0.00;0.00;;;;;;;;;;1735238;28;20203;-74
2023/07/14 03:06:48;;;;;;;0.00;0.00;;;;;;;;;;1734314;28;20278;-73
2023/07/14 03:07:39;;;;;;;0.00;0.00;;;;;;;;;;1735194;28;20219;-75
2023/07/14 03:08:31;;;;;;;0.00;0.00;;;;;;;;;;1732174;28;20196;-76
2023/07/14 03:09:23;;;;;;;0.00;0.00;;;;;;;;;;1737172;28;20298;-76
2023/07/14 03:10:14;;;;;;;0.00;0.00;;;;;;;;;;1739952;28;20206;-76
2023/07/14 03:11:06;;;;;;;0.00;0.00;;;;;;;;;;1739600;28;20521;-76
2023/07/14 03:11:57;;;;;;;0.00;0.00;;;;;;;;;;1739668;28;20317;-76
2023/07/14 03:12:49;;;;;;;0.00;0.00;;;;;;;;;;1739308;28;20199;-76
2023/07/14 03:13:41;;;;;;;0.00;0.00;;;;;;;;;;1739983;28;20739;-76
2023/07/14 03:14:32;;;;;;;0.00;0.00;;;;;;;;;;1740011;28;20264;-76
2023/07/14 03:15:25;;;;;;;0.00;0.00;;;;;;;;;;1739987;28;20549;-75
2023/07/14 03:16:16;;;;;;;0.00;0.00;;;;;;;;;;1739609;28;20242;-75
2023/07/14 03:17:08;;;;;;;0.00;0.00;;;;;;;;;;1739239;28;20302;-75
2023/07/14 03:18:00;;;;;;;0.00;0.00;;;;;;;;;;1739504;28;20474;-74
2023/07/14 03:18:51;;;;;;;0.00;0.00;;;;;;;;;;1739716;28;20210;-75
2023/07/14 03:19:42;;;;;;;0.00;0.00;;;;;;;;;;1736181;28;20237;-76
2023/07/14 03:20:34;;;;;;;0.00;0.00;;;;;;;;;;1740120;28;20206;-76
2023/07/14 03:21:25;;;;;;;0.00;0.00;;;;;;;;;;1740201;28;20207;-76
2023/07/14 03:22:18;;;;;;;0.00;0.00;;;;;;;;;;1739330;28;20556;-76
2023/07/14 03:23:09;;;;;;;0.00;0.00;;;;;;;;;;1740255;28;20211;-76
2023/07/14 03:24:01;;;;;;;0.00;0.00;;;;;;;;;;1739492;28;20301;-75
2023/07/14 03:24:52;;;;;;;0.00;0.00;;;;;;;;;;1740191;28;20207;-76
2023/07/14 03:25:43;;;;;;;0.00;0.00;;;;;;;;;;1740221;28;20587;-76
2023/07/14 03:26:35;;;;;;;0.00;0.00;;;;;;;;;;1740241;28;20667;-75
2023/07/14 03:27:27;;;;;;;0.00;0.00;;;;;;;;;;1739810;28;20210;-75
2023/07/14 03:28:19;;;;;;;0.00;0.00;;;;;;;;;;1740067;28;20211;-75
2023/07/14 03:29:10;;;;;;;0.00;0.00;;;;;;;;;;1739662;28;20306;-75
2023/07/14 03:30:03;;;;;;;0.00;0.00;;;;;;;;;;1740148;28;20614;-75
2023/07/14 03:30:56;;;;;;;0.00;0.00;;;;;;;;;;1739326;28;20214;-76
2023/07/14 03:31:47;;;;;;;0.00;0.00;;;;;;;;;;1739687;28;20230;-76
2023/07/14 03:32:39;;;;;;;0.00;0.00;;;;;;;;;;1739674;28;20290;-76
2023/07/14 03:33:32;;;;;;;0.00;0.00;;;;;;;;;;1739674;28;20306;-77
2023/07/14 03:34:24;;;;;;;0.00;0.00;;;;;;;;;;1739179;28;20241;-76
2023/07/14 03:35:18;;;;;;;0.00;0.00;;;;;;;;;;1740285;28;20272;-77
2023/07/14 03:36:12;;;;;;;0.00;0.00;;;;;;;;;;1739249;28;20225;-76
2023/07/14 03:37:03;;;;;;;0.00;0.00;;;;;;;;;;1738803;28;20211;-75
2023/07/14 03:37:55;;;;;;;0.00;0.00;;;;;;;;;;1739534;28;20663;-75
2023/07/14 03:38:47;;;;;;;0.00;0.00;;;;;;;;;;1739212;28;20954;-76
2023/07/14 03:39:38;;;;;;;0.00;0.00;;;;;;;;;;1739938;28;20280;-76
2023/07/14 03:40:30;;;;;;;0.00;0.00;;;;;;;;;;1739597;28;20210;-75
2023/07/14 03:41:21;;;;;;;0.00;0.00;;;;;;;;;;1739527;28;20271;-75
2023/07/14 03:42:14;;;;;;;0.00;0.00;;;;;;;;;;1739450;28;20617;-75
2023/07/14 03:43:06;;;;;;;0.00;0.00;;;;;;;;;;1739399;28;20242;-75
2023/07/14 03:43:57;;;;;;;0.00;0.00;;;;;;;;;;1739352;28;20670;-75
2023/07/14 03:44:49;;;;;;;0.00;0.00;;;;;;;;;;1739474;28;20294;-75
2023/07/14 03:45:40;;;;;;;0.00;0.00;;;;;;;;;;1739943;28;20203;-76
2023/07/14 03:46:33;;;;;;;0.00;0.00;;;;;;;;;;1739669;28;20203;-75
2023/07/14 03:47:24;;;;;;;0.00;0.00;;;;;;;;;;1738723;28;20298;-76
2023/07/14 03:51:14;;;;;;;0.00;0.00;;;;;;;;;;1727319;28;20279;-75
2023/07/14 03:52:05;;;;;;;0.00;0.00;;;;;;;;;;1739133;28;20272;-75
2023/07/14 03:52:57;;;;;;;0.00;0.00;;;;;;;;;;1744565;28;20206;-76
2023/07/14 03:53:48;;;;;;;0.00;0.00;;;;;;;;;;1746646;28;20298;-75
2023/07/14 03:54:39;;;;;;;0.00;0.00;;;;;;;;;;1745930;28;20924;-76
2023/07/14 03:55:32;;;;;;;0.00;0.00;;;;;;;;;;1737402;28;20234;-75
2023/07/14 03:56:23;;;;;;;0.00;0.00;;;;;;;;;;1744863;28;20241;-75
2023/07/14 03:57:14;;;;;;;0.00;0.00;;;;;;;;;;1744894;28;20321;-75
2023/07/14 03:58:07;;;;;;;0.00;0.00;;;;;;;;;;1752541;28;20202;-76
2023/07/14 03:58:58;;;;;;;0.00;0.00;;;;;;;;;;1753880;28;20217;-75
2023/07/14 03:59:50;;;;;;;0.00;0.00;;;;;;;;;;1754202;28;20193;-75
2023/07/14 04:00:41;;;;;;;0.00;0.00;;;;;;;;;;1754243;28;20942;-75
2023/07/14 04:01:33;;;;;;;0.00;0.00;;;;;;;;;;1753599;28;20308;-75
2023/07/14 04:02:25;;;;;;;0.00;0.00;;;;;;;;;;1750940;28;20203;-75
2023/07/14 04:03:17;;;;;;;0.00;0.00;;;;;;;;;;1752948;28;20220;-75
2023/07/14 04:04:08;;;;;;;0.00;0.00;;;;;;;;;;1748832;28;20736;-75
2023/07/14 04:05:00;;;;;;;0.00;0.00;;;;;;;;;;1754335;28;20206;-75
2023/07/14 04:05:51;;;;;;;0.00;0.00;;;;;;;;;;1753641;28;20359;-75
2023/07/14 04:06:42;;;;;;;0.00;0.00;;;;;;;;;;1754395;28;20198;-75
2023/07/14 04:07:34;;;;;;;0.00;0.00;;;;;;;;;;1753436;28;20201;-75
2023/07/14 04:08:25;;;;;;;0.00;0.00;;;;;;;;;;1754391;28;20300;-75
2023/07/14 04:09:17;;;;;;;0.00;0.00;;;;;;;;;;1753737;28;20212;-75
2023/07/14 04:10:09;;;;;;;0.00;0.00;;;;;;;;;;1754507;28;20292;-75
2023/07/14 04:11:01;;;;;;;0.00;0.00;;;;;;;;;;1753916;28;20197;-75
2023/07/14 04:11:52;;;;;;;0.00;0.00;;;;;;;;;;1754072;28;20244;-75
2023/07/14 04:12:43;;;;;;;0.00;0.00;;;;;;;;;;1753659;28;20285;-75
2023/07/14 04:13:35;;;;;;;0.00;0.00;;;;;;;;;;1754276;28;20274;-75
2023/07/14 04:14:26;;;;;;;0.00;0.00;;;;;;;;;;1752721;28;20198;-75
2023/07/14 04:15:19;;;;;;;0.00;0.00;;;;;;;;;;1754233;28;20205;-76
2023/07/14 04:16:11;;;;;;;0.00;0.00;;;;;;;;;;1752625;28;20216;-75
2023/07/14 04:17:04;;;;;;;0.00;0.00;;;;;;;;;;1753053;28;20249;-76
2023/07/14 04:17:55;;;;;;;0.00;0.00;;;;;;;;;;1752960;28;20603;-76
2023/07/14 04:18:47;;;;;;;0.00;0.00;;;;;;;;;;1752176;28;20201;-75
2023/07/14 04:19:38;;;;;;;0.00;0.00;;;;;;;;;;1753243;28;20205;-75
2023/07/14 04:20:30;;;;;;;0.00;0.00;;;;;;;;;;1752489;28;20582;-76
2023/07/14 04:21:24;;;;;;;0.00;0.00;;;;;;;;;;1753514;28;20288;-75
2023/07/14 04:22:16;;;;;;;0.00;0.00;;;;;;;;;;1751045;28;20193;-75
2023/07/14 04:23:07;;;;;;;0.00;0.00;;;;;;;;;;1753295;28;20300;-75
2023/07/14 04:23:59;;;;;;;0.00;0.00;;;;;;;;;;1752618;28;20293;-75
2023/07/14 04:24:51;;;;;;;0.00;0.00;;;;;;;;;;1753969;28;20268;-75
2023/07/14 04:25:42;;;;;;;0.00;0.00;;;;;;;;;;1753827;28;20332;-75
2023/07/14 04:26:34;;;;;;;0.00;0.00;;;;;;;;;;1754098;28;20286;-75
2023/07/14 04:27:25;;;;;;;0.00;0.00;;;;;;;;;;1753415;28;20317;-75
2023/07/14 04:28:17;;;;;;;0.00;0.00;;;;;;;;;;1754269;28;20201;-75
2023/07/14 04:29:11;;;;;;;0.00;0.00;;;;;;;;;;1752869;28;20284;-75
2023/07/14 04:30:08;;;;;;;0.00;0.00;;;;;;;;;;1754401;28;20212;-75
2023/07/14 04:31:00;;;;;;;0.00;0.00;;;;;;;;;;1753165;28;20214;-75
2023/07/14 04:31:51;;;;;;;0.00;0.00;;;;;;;;;;1753773;28;20248;-75
2023/07/14 04:32:44;;;;;;;0.00;0.00;;;;;;;;;;1752075;28;20201;-75
2023/07/14 04:33:35;;;;;;;0.00;0.00;;;;;;;;;;1753335;28;20293;-76
2023/07/14 04:34:27;;;;;;;0.00;0.00;;;;;;;;;;1752641;28;20284;-76
2023/07/14 04:35:19;;;;;;;0.00;0.00;;;;;;;;;;1753915;28;20204;-76
2023/07/14 04:36:10;;;;;;;0.00;0.00;;;;;;;;;;1752460;28;20293;-75
2023/07/14 04:37:03;;;;;;;0.00;0.00;;;;;;;;;;1752977;28;20210;-76
2023/07/14 04:37:54;;;;;;;0.00;0.00;;;;;;;;;;1753006;28;20210;-76
2023/07/14 04:39:00;;;;;;;0.00;0.00;;;;;;;;;;1752129;28;20636;-75
2023/07/14 04:39:51;;;;;;;0.00;0.00;;;;;;;;;;1750778;28;20201;-76
2023/07/14 04:40:43;;;;;;;0.00;0.00;;;;;;;;;;1752723;28;20619;-76
2023/07/14 04:41:35;;;;;;;0.00;0.00;;;;;;;;;;1753001;28;20288;-76
2023/07/14 04:42:27;;;;;;;0.00;0.00;;;;;;;;;;1752596;28;20270;-75
2023/07/14 04:43:18;;;;;;;0.00;0.00;;;;;;;;;;1751772;28;20664;-74
2023/07/14 04:44:13;;;;;;;0.00;0.00;;;;;;;;;;1752536;28;20201;-75
2023/07/14 04:45:04;;;;;;;0.00;0.00;;;;;;;;;;1753622;28;20209;-75
2023/07/14 04:45:56;;;;;;;0.00;0.00;;;;;;;;;;1752363;28;20197;-76
2023/07/14 04:46:48;;;;;;;0.00;0.00;;;;;;;;;;1753252;28;20761;-75
2023/07/14 04:47:39;;;;;;;0.00;0.00;;;;;;;;;;1752252;28;20628;-75
2023/07/14 04:48:33;;;;;;;0.00;0.00;;;;;;;;;;1753264;28;20190;-75
2023/07/14 04:49:24;;;;;;;0.00;0.00;;;;;;;;;;1752053;28;20225;-75
2023/07/14 04:50:16;;;;;;;0.00;0.00;;;;;;;;;;1753342;28;20805;-75
2023/07/14 04:51:07;;;;;;;0.00;0.00;;;;;;;;;;1752362;28;20576;-75
2023/07/14 04:51:58;;;;;;;0.00;0.00;;;;;;;;;;1752906;28;20197;-75
2023/07/14 04:52:50;;;;;;;0.00;0.00;;;;;;;;;;1752347;28;20201;-75
2023/07/14 04:53:41;;;;;;;0.00;0.00;;;;;;;;;;1752565;28;20603;-75
2023/07/14 04:54:35;;;;;;;0.00;0.00;;;;;;;;;;1752278;28;20660;-75
2023/07/14 04:55:26;;;;;;;0.00;0.00;;;;;;;;;;1747116;28;20243;-75
2023/07/14 04:56:17;;;;;;;0.00;0.00;;;;;;;;;;1752875;28;20205;-76
2023/07/14 04:57:09;;;;;;;0.00;0.00;;;;;;;;;;1752672;28;20205;-75
2023/07/14 04:58:01;;;;;;;0.00;0.00;;;;;;;;;;1752893;28;20244;-76
2023/07/14 04:58:52;;;;;;;0.00;0.00;;;;;;;;;;1752290;28;20607;-75
2023/07/14 04:59:44;;;;;;;0.00;0.00;;;;;;;;;;1752941;28;20623;-76
2023/07/14 05:00:35;;;;;;;0.00;0.00;;;;;;;;;;1752864;28;20288;-76
2023/07/14 05:01:27;;;;;;;0.00;0.00;;;;;;;;;;1752524;28;20591;-76
2023/07/14 05:02:19;;;;;;;0.00;0.00;;;;;;;;;;1749512;28;20247;-76
2023/07/14 05:03:10;;;;;;;0.00;0.00;;;;;;;;;;1753185;28;20292;-76
2023/07/14 05:04:03;;;;;;;0.00;0.00;;;;;;;;;;1752297;28;20632;-76
2023/07/14 05:05:10;;;;;;;0.00;0.00;;;;;;;;;;1753208;28;20235;-75
2023/07/14 05:06:01;;;;;;;0.00;0.00;;;;;;;;;;1752120;28;20296;-76
2023/07/14 05:06:53;;;;;;;0.00;0.00;;;;;;;;;;1753408;28;20630;-76
2023/07/14 05:07:44;;;;;;;0.00;0.00;;;;;;;;;;1752519;28;20418;-76
2023/07/14 05:08:35;;;;;;;0.00;0.00;;;;;;;;;;1753143;28;20258;-76
2023/07/14 05:09:27;;;;;;;0.00;0.00;;;;;;;;;;1752664;28;20197;-76
2023/07/14 05:10:19;;;;;;;0.00;0.00;;;;;;;;;;1753912;28;20313;-76
2023/07/14 05:11:10;;;;;;;0.00;0.00;;;;;;;;;;1753224;28;20227;-76
2023/07/14 05:12:02;;;;;;;0.00;0.00;;;;;;;;;;1753303;28;20201;-76
2023/07/14 05:12:53;;;;;;;0.00;0.00;;;;;;;;;;1753008;28;20212;-76
2023/07/14 05:13:45;;;;;;;0.00;0.00;;;;;;;;;;1752955;28;20194;-75
2023/07/14 05:14:37;;;;;;;0.00;0.00;;;;;;;;;;1753183;28;20212;-75
2023/07/14 05:15:28;;;;;;;0.00;0.00;;;;;;;;;;1753285;28;20229;-75
2023/07/14 05:16:19;;;;;;;0.00;0.00;;;;;;;;;;1753324;28;20666;-75
2023/07/14 05:17:11;;;;;;;0.00;0.00;;;;;;;;;;1752368;28;20531;-75
2023/07/14 05:18:02;;;;;;;0.00;0.00;;;;;;;;;;1750835;28;20689;-76
2023/07/14 05:18:53;;;;;;;0.00;0.00;;;;;;;;;;1752178;28;20213;-74
2023/07/14 05:19:47;;;;;;;0.00;0.00;;;;;;;;;;1753263;28;20200;-75
2023/07/14 05:20:39;;;;;;;0.00;0.00;;;;;;;;;;1752619;28;20366;-75